createdAt,value
2019-01-19T00:01:21.868Z,95.92
2019-01-19T00:05:35.299Z,95.99
2019-01-19T00:09:08.217Z,96.04
2019-01-19T00:12:35.004Z,95.91
2019-01-19T00:15:57.533Z,95.74
2019-01-19T00:19:39.223Z,95.35
2019-01-19T00:22:57.643Z,95.68
2019-01-19T00:26:47.278Z,96.05
2019-01-19T00:30:16.136Z,96.22
2019-01-19T00:34:03.004Z,96.41
2019-01-19T00:37:29.957Z,96.32
2019-01-19T00:41:17.150Z,96.57
2019-01-19T00:45:27.344Z,96.90
2019-01-19T00:49:05.929Z,97.19
2019-01-19T00:52:47.573Z,97.28
2019-01-19T00:56:50.655Z,97.39
2019-01-19T00:59:59.961Z,97.34
2019-01-19T01:03:25.183Z,97.62
2019-01-19T01:06:59.685Z,97.71
2019-01-19T01:10:22.775Z,97.65
2019-01-19T01:14:04.924Z,97.84
2019-01-19T01:18:03.158Z,97.97
2019-01-19T01:22:04.446Z,97.98
2019-01-19T01:26:14.703Z,98.07
2019-01-19T01:29:40.505Z,98.19
2019-01-19T01:33:29.621Z,98.09
2019-01-19T01:37:09.060Z,98.15
2019-01-19T01:40:57.995Z,98.01
2019-01-19T01:44:46.450Z,98.04
2019-01-19T01:48:33.635Z,98.28
2019-01-19T01:51:56.834Z,98.35
2019-01-19T01:55:27.406Z,98.18
2019-01-19T01:59:02.720Z,98.32
2019-01-19T02:02:33.625Z,98.45
2019-01-19T02:06:02.528Z,98.49
2019-01-19T02:09:57.829Z,98.30
2019-01-19T02:13:41.071Z,98.30
2019-01-19T02:17:07.072Z,98.20
2019-01-19T02:20:49.142Z,98.24
2019-01-19T02:24:33.203Z,98.47
2019-01-19T02:27:54.524Z,98.23
2019-01-19T02:31:45.412Z,97.92
2019-01-19T02:35:48.626Z,97.94
2019-01-19T02:39:49.393Z,98.11
2019-01-19T02:43:35.027Z,98.36
2019-01-19T02:47:24.251Z,98.48
2019-01-19T02:51:00.122Z,98.54
2019-01-19T02:54:20.186Z,98.42
2019-01-19T02:58:15.101Z,98.12
2019-01-19T03:02:08.520Z,98.07
2019-01-19T03:05:28.156Z,97.98
2019-01-19T03:09:17.399Z,98.13
2019-01-19T03:12:43.481Z,98.06
2019-01-19T03:16:14.383Z,97.65
2019-01-19T03:19:43.671Z,97.74
2019-01-19T03:23:14.671Z,97.54
2019-01-19T03:26:37.931Z,97.43
2019-01-19T03:29:53.421Z,97.59
2019-01-19T03:33:31.254Z,97.79
2019-01-19T03:37:03.678Z,98.04
2019-01-19T03:40:41.531Z,98.01
2019-01-19T03:44:26.817Z,97.83
2019-01-19T03:47:59.978Z,97.54
2019-01-19T03:51:46.809Z,97.49
2019-01-19T03:55:09.471Z,97.04
2019-01-19T03:58:27.122Z,96.98
2019-01-19T04:01:52.840Z,97.11
2019-01-19T04:05:20.879Z,96.88
2019-01-19T04:08:59.191Z,96.75
2019-01-19T04:12:54.129Z,96.85
2019-01-19T04:16:40.345Z,96.67
2019-01-19T04:20:21.537Z,96.64
2019-01-19T04:23:26.608Z,96.84
2019-01-19T04:26:36.191Z,96.80
2019-01-19T04:29:41.388Z,96.79
2019-01-19T04:32:47.613Z,96.32
2019-01-19T04:35:52.721Z,96.35
2019-01-19T04:38:58.002Z,96.18
2019-01-19T04:42:03.983Z,96.16
2019-01-19T04:45:09.109Z,96.21
2019-01-19T04:48:14.807Z,96.26
2019-01-19T04:51:19.920Z,96.42
2019-01-19T04:54:25.081Z,96.53
2019-01-19T04:57:30.333Z,96.47
2019-01-19T05:00:35.551Z,96.17
2019-01-19T05:03:40.679Z,96.23
2019-01-19T05:06:45.861Z,96.18
2019-01-19T05:09:50.956Z,95.96
2019-01-19T05:12:56.078Z,95.83
2019-01-19T05:16:01.153Z,95.96
2019-01-19T05:19:06.338Z,95.70
2019-01-19T05:22:11.452Z,95.77
2019-01-19T05:25:16.606Z,95.92
2019-01-19T05:28:21.723Z,96.15
2019-01-19T05:31:26.941Z,96.38
2019-01-19T05:34:32.095Z,96.49
2019-01-19T05:37:37.227Z,96.43
2019-01-19T05:40:42.323Z,96.48
2019-01-19T05:43:47.497Z,96.62
2019-01-19T05:46:52.645Z,96.75
2019-01-19T05:49:57.778Z,96.76
2019-01-19T05:53:02.966Z,96.60
2019-01-19T05:56:08.210Z,96.67
2019-01-19T05:59:13.341Z,96.76
2019-01-19T06:02:19.806Z,96.88
2019-01-19T06:05:24.937Z,96.70
2019-01-19T06:08:30.102Z,96.77
2019-01-19T06:11:35.234Z,96.56
2019-01-19T06:14:40.378Z,96.79
2019-01-19T06:17:45.515Z,96.82
2019-01-19T06:20:50.644Z,96.75
2019-01-19T06:23:55.775Z,96.78
2019-01-19T06:27:00.904Z,96.70
2019-01-19T06:30:08.701Z,96.86
2019-01-19T06:33:13.858Z,97.06
2019-01-19T06:36:18.978Z,97.21
2019-01-19T06:39:24.187Z,97.26
2019-01-19T06:42:29.294Z,97.29
2019-01-19T06:45:34.535Z,97.30
2019-01-19T06:48:39.598Z,97.18
2019-01-19T06:51:44.718Z,97.11
2019-01-19T06:54:49.936Z,96.87
2019-01-19T06:57:55.138Z,96.88
2019-01-19T07:01:00.287Z,96.83
2019-01-19T07:04:05.405Z,96.64
2019-01-19T07:07:10.540Z,96.53
2019-01-19T07:10:18.321Z,96.50
2019-01-19T07:13:23.475Z,96.47
2019-01-19T07:16:28.645Z,96.62
2019-01-19T07:19:33.829Z,96.80
2019-01-19T07:22:38.926Z,96.77
2019-01-19T07:25:45.492Z,96.79
2019-01-19T07:28:50.730Z,96.88
2019-01-19T07:31:56.002Z,96.92
2019-01-19T07:35:01.206Z,96.53
2019-01-19T07:38:06.471Z,96.30
2019-01-19T07:41:11.641Z,96.17
2019-01-19T07:44:16.760Z,95.64
2019-01-19T07:47:22.281Z,95.45
2019-01-19T07:50:27.404Z,94.97
2019-01-19T07:53:32.518Z,94.29
2019-01-19T07:56:37.685Z,94.63
2019-01-19T07:59:42.816Z,94.20
2019-01-19T08:02:47.944Z,94.03
2019-01-19T08:05:53.037Z,92.59
2019-01-19T08:08:59.864Z,91.86
2019-01-19T08:12:05.323Z,91.71
2019-01-19T08:15:13.090Z,91.64
2019-01-19T08:18:18.290Z,90.99
2019-01-19T08:21:23.483Z,90.70
2019-01-19T08:24:28.646Z,90.80
2019-01-19T08:27:33.826Z,89.82
2019-01-19T08:30:39.051Z,89.70
2019-01-19T08:33:44.221Z,89.23
2019-01-19T08:36:49.311Z,89.09
2019-01-19T08:39:54.441Z,88.93
2019-01-19T08:43:04.267Z,88.07
2019-01-19T08:46:09.640Z,88.13
2019-01-19T08:49:14.808Z,88.28
2019-01-19T08:52:19.977Z,87.92
2019-01-19T08:55:25.181Z,88.16
2019-01-19T08:58:31.560Z,87.72
2019-01-19T09:01:36.848Z,87.73
2019-01-19T09:04:41.958Z,87.02
2019-01-19T09:07:47.114Z,84.89
2019-01-19T09:10:52.244Z,84.58
2019-01-19T09:13:57.405Z,84.51
2019-01-19T09:17:02.515Z,84.58
2019-01-19T09:20:09.354Z,84.55
2019-01-19T09:23:39.260Z,83.61
2019-01-19T09:26:44.414Z,84.29
2019-01-19T09:29:49.591Z,82.30
2019-01-19T09:32:55.290Z,82.27
2019-01-19T09:36:00.451Z,81.21
2019-01-19T09:39:11.401Z,79.56
2019-01-19T09:42:16.525Z,79.85
2019-01-19T09:45:21.796Z,78.24
2019-01-19T09:48:26.910Z,76.77
2019-01-19T09:51:32.097Z,75.25
2019-01-19T09:54:37.298Z,75.44
2019-01-19T09:57:42.748Z,75.27
2019-01-19T10:00:47.951Z,74.67
2019-01-19T10:03:53.285Z,74.08
2019-01-19T10:06:58.407Z,74.13
2019-01-19T10:10:03.573Z,73.98
2019-01-19T10:13:08.675Z,74.17
2019-01-19T10:16:13.856Z,73.21
2019-01-19T10:19:19.015Z,72.81
2019-01-19T10:22:24.253Z,72.99
2019-01-19T10:25:29.557Z,72.85
2019-01-19T10:28:34.711Z,72.98
2019-01-19T10:31:39.914Z,71.55
2019-01-19T10:34:45.097Z,72.16
2019-01-19T10:37:56.209Z,71.31
2019-01-19T10:40:57.265Z,71.42
2019-01-19T10:44:02.443Z,70.61
2019-01-19T10:47:07.716Z,71.23
2019-01-19T10:50:14.629Z,69.14
2019-01-19T10:53:20.682Z,67.66
2019-01-19T10:56:25.857Z,68.33
2019-01-19T10:59:31.009Z,68.77
2019-01-19T11:02:36.140Z,69.96
2019-01-19T11:05:41.240Z,69.35
2019-01-19T11:08:46.338Z,68.08
2019-01-19T11:11:51.543Z,68.92
2019-01-19T11:14:56.764Z,68.21
2019-01-19T11:18:01.920Z,68.21
2019-01-19T11:21:07.053Z,68.01
2019-01-19T11:24:12.197Z,66.96
2019-01-19T11:27:17.349Z,65.25
2019-01-19T11:30:24.413Z,64.35
2019-01-19T11:33:29.524Z,63.76
2019-01-19T11:36:34.665Z,63.69
2019-01-19T11:39:39.754Z,63.94
2019-01-19T11:42:44.894Z,64.83
2019-01-19T11:45:50.027Z,65.01
2019-01-19T11:48:55.249Z,64.44
2019-01-19T11:52:00.371Z,64.74
2019-01-19T11:55:07.682Z,64.85
2019-01-19T11:58:14.849Z,64.96
2019-01-19T12:01:20.454Z,64.63
2019-01-19T12:04:25.658Z,63.10
2019-01-19T12:07:30.748Z,63.41
2019-01-19T12:10:35.959Z,63.27
2019-01-19T12:13:41.110Z,62.07
2019-01-19T12:16:46.241Z,62.82
2019-01-19T12:19:51.331Z,64.80
2019-01-19T12:22:56.519Z,64.08
2019-01-19T12:26:01.676Z,63.83
2019-01-19T12:29:06.788Z,62.67
2019-01-19T12:32:14.460Z,63.33
2019-01-19T12:35:18.793Z,61.51
2019-01-19T12:38:26.993Z,62.05
2019-01-19T12:41:31.769Z,59.68
2019-01-19T12:44:36.917Z,58.98
2019-01-19T12:47:42.046Z,59.13
2019-01-19T12:50:47.264Z,59.65
2019-01-19T12:53:52.410Z,61.32
2019-01-19T12:56:57.643Z,60.78
2019-01-19T13:00:02.770Z,60.78
2019-01-19T13:03:08.581Z,58.58
2019-01-19T13:06:34.405Z,56.45
2019-01-19T13:09:43.285Z,56.99
2019-01-19T13:12:58.084Z,57.38
2019-01-19T13:16:35.759Z,55.93
2019-01-19T13:20:05.794Z,55.64
2019-01-19T13:23:47.860Z,55.05
2019-01-19T13:27:11.400Z,55.21
2019-01-19T13:30:29.216Z,55.99
2019-01-19T13:33:56.794Z,55.68
2019-01-19T13:37:17.411Z,55.41
2019-01-19T13:40:59.424Z,55.65
2019-01-19T13:44:34.986Z,54.75
2019-01-19T13:48:16.059Z,55.81
2019-01-19T13:51:35.459Z,55.17
2019-01-19T13:55:50.545Z,55.76
2019-01-19T13:59:12.056Z,55.71
2019-01-19T14:02:40.265Z,53.95
2019-01-19T14:06:17.975Z,52.88
2019-01-19T14:09:55.201Z,53.56
2019-01-19T14:13:27.909Z,53.38
2019-01-19T14:17:19.979Z,53.49
2019-01-19T14:21:24.724Z,54.88
2019-01-19T14:25:09.538Z,54.27
2019-01-19T14:29:05.432Z,53.96
2019-01-19T14:32:29.266Z,55.45
2019-01-19T14:36:24.537Z,54.07
2019-01-19T14:40:00.193Z,55.03
2019-01-19T14:43:52.328Z,56.78
2019-01-19T14:47:16.067Z,57.40
2019-01-19T14:51:01.105Z,56.78
2019-01-19T14:54:43.045Z,57.47
2019-01-19T14:58:26.337Z,57.37
2019-01-19T15:02:03.825Z,58.98
2019-01-19T15:05:28.610Z,59.14
2019-01-19T15:09:14.723Z,58.71
2019-01-19T15:13:12.009Z,60.13
2019-01-19T15:16:53.763Z,58.92
2019-01-19T15:20:27.072Z,59.85
2019-01-19T15:23:42.241Z,59.92
2019-01-19T15:27:23.425Z,60.67
2019-01-19T15:30:47.923Z,60.11
2019-01-19T15:34:28.920Z,61.21
2019-01-19T15:37:44.865Z,61.79
2019-01-19T15:41:37.170Z,62.79
2019-01-19T15:45:24.729Z,65.49
2019-01-19T15:49:23.052Z,66.27
2019-01-19T15:52:55.755Z,66.47
2019-01-19T15:56:43.752Z,68.47
2019-01-19T16:00:37.538Z,69.51
2019-01-19T16:04:20.842Z,70.76
2019-01-19T16:08:03.142Z,70.02
2019-01-19T16:11:47.629Z,70.62
2019-01-19T16:15:15.864Z,72.69
2019-01-19T16:18:52.379Z,74.67
2019-01-19T16:22:27.721Z,75.12
2019-01-19T16:26:12.750Z,75.38
2019-01-19T16:29:52.523Z,75.50
2019-01-19T16:33:31.953Z,75.79
2019-01-19T16:37:03.415Z,75.89
2019-01-19T16:40:40.927Z,76.18
2019-01-19T16:44:31.948Z,77.25
2019-01-19T16:48:19.084Z,78.87
2019-01-19T16:52:20.057Z,79.61
2019-01-19T16:55:41.649Z,78.29
2019-01-19T16:59:04.495Z,79.24
2019-01-19T17:02:49.274Z,78.07
2019-01-19T17:06:31.086Z,77.74
2019-01-19T17:10:01.083Z,78.82
2019-01-19T17:13:45.504Z,77.62
2019-01-19T17:17:37.455Z,77.41
2019-01-19T17:21:22.521Z,77.49
2019-01-19T17:25:20.392Z,76.56
2019-01-19T17:28:59.491Z,77.13
2019-01-19T17:32:33.733Z,78.80
2019-01-19T17:36:08.142Z,80.52
2019-01-19T17:39:29.654Z,81.27
2019-01-19T17:43:16.606Z,81.72
2019-01-19T17:47:11.378Z,82.96
2019-01-19T17:51:09.499Z,82.93
2019-01-19T17:54:51.388Z,83.56
2019-01-19T17:58:32.654Z,83.67
2019-01-19T18:02:31.148Z,83.52
2019-01-19T18:06:07.920Z,84.28
2019-01-19T18:09:47.611Z,84.03
2019-01-19T18:13:34.078Z,84.31
2019-01-19T18:17:05.699Z,84.87
2019-01-19T18:20:25.795Z,85.64
2019-01-19T18:24:13.878Z,86.40
2019-01-19T18:28:01.567Z,87.07
2019-01-19T18:31:47.111Z,87.01
2019-01-19T18:35:20.893Z,86.65
2019-01-19T18:39:00.597Z,86.75
2019-01-19T18:42:30.687Z,87.70
2019-01-19T18:46:09.694Z,88.01
2019-01-19T18:49:46.493Z,88.00
2019-01-19T18:53:15.519Z,87.35
2019-01-19T18:57:03.247Z,86.66
2019-01-19T19:00:37.877Z,86.77
2019-01-19T19:04:54.384Z,86.71
2019-01-19T19:08:35.786Z,86.85
2019-01-19T19:12:22.148Z,87.69
2019-01-19T19:16:01.435Z,88.92
2019-01-19T19:19:18.898Z,88.80
2019-01-19T19:22:51.957Z,89.69
2019-01-19T19:26:43.127Z,89.83
2019-01-19T19:30:17.768Z,89.96
2019-01-19T19:33:54.573Z,90.50
2019-01-19T19:37:35.538Z,90.44
2019-01-19T19:41:25.935Z,90.50
2019-01-19T19:44:53.615Z,90.87
2019-01-19T19:48:42.999Z,90.67
2019-01-19T19:51:58.442Z,91.24
2019-01-19T19:55:01.984Z,91.18
2019-01-19T19:58:07.332Z,90.83
2019-01-19T20:01:12.611Z,91.14
2019-01-19T20:04:18.047Z,91.27
2019-01-19T20:07:23.272Z,91.22
2019-01-19T20:10:28.519Z,91.23
2019-01-19T20:13:33.728Z,91.39
2019-01-19T20:16:38.854Z,91.59
2019-01-19T20:19:44.016Z,91.94
2019-01-19T20:22:49.252Z,92.09
2019-01-19T20:25:54.464Z,92.14
2019-01-19T20:28:59.590Z,92.08
2019-01-19T20:32:04.761Z,92.45
2019-01-19T20:35:09.911Z,92.83
2019-01-19T20:38:15.157Z,92.38
2019-01-19T20:41:20.308Z,92.05
2019-01-19T20:44:25.547Z,91.91
2019-01-19T20:47:30.753Z,91.78
2019-01-19T20:50:35.920Z,91.77
2019-01-19T20:53:41.093Z,91.84
2019-01-19T20:56:46.329Z,91.65
2019-01-19T20:59:51.548Z,91.27
2019-01-19T21:02:56.747Z,91.33
2019-01-19T21:06:02.039Z,91.63
2019-01-19T21:09:12.373Z,92.04
2019-01-19T21:12:17.584Z,92.08
2019-01-19T21:15:22.811Z,92.03
2019-01-19T21:18:28.012Z,92.06
2019-01-19T21:21:33.173Z,92.23
2019-01-19T21:24:38.395Z,92.45
2019-01-19T21:27:43.630Z,92.90
2019-01-19T21:30:48.854Z,92.78
2019-01-19T21:33:54.044Z,92.95
2019-01-19T21:36:59.236Z,93.41
2019-01-19T21:40:06.010Z,93.44
2019-01-19T21:43:11.346Z,93.29
2019-01-19T21:46:16.488Z,93.27
2019-01-19T21:49:21.631Z,93.49
2019-01-19T21:52:26.819Z,93.59
2019-01-19T21:55:31.923Z,93.45
2019-01-19T21:58:37.143Z,93.76
2019-01-19T22:01:42.219Z,93.66
2019-01-19T22:04:47.412Z,93.47
2019-01-19T22:07:52.573Z,93.47
2019-01-19T22:10:57.730Z,93.98
2019-01-19T22:14:02.897Z,94.19
2019-01-19T22:17:08.090Z,94.28
2019-01-19T22:20:14.484Z,94.40
2019-01-19T22:23:19.609Z,94.24
2019-01-19T22:26:25.119Z,93.90
2019-01-19T22:29:30.255Z,94.17
2019-01-19T22:32:35.439Z,94.53
2019-01-19T22:35:40.625Z,93.93
2019-01-19T22:38:45.760Z,93.47
2019-01-19T22:41:53.935Z,92.84
2019-01-19T22:44:59.071Z,93.28
2019-01-19T22:48:04.555Z,93.61
2019-01-19T22:51:11.408Z,94.08
2019-01-19T22:54:16.786Z,94.44
2019-01-19T22:57:21.932Z,94.65
2019-01-19T23:01:07.673Z,94.84
2019-01-19T23:04:12.869Z,94.62
2019-01-19T23:07:18.005Z,94.86
2019-01-19T23:10:24.203Z,94.38
2019-01-19T23:13:29.414Z,94.74
2019-01-19T23:16:34.527Z,94.99
2019-01-19T23:19:39.689Z,94.68
2019-01-19T23:22:45.134Z,94.05
2019-01-19T23:25:50.293Z,94.53
2019-01-19T23:28:55.415Z,95.14
2019-01-19T23:32:00.535Z,94.73
2019-01-19T23:35:06.729Z,95.06
2019-01-19T23:38:11.892Z,95.37
2019-01-19T23:41:17.098Z,95.37
2019-01-19T23:44:22.218Z,95.45
2019-01-19T23:47:27.364Z,95.51
2019-01-19T23:50:32.507Z,95.51
2019-01-19T23:53:37.731Z,95.59
2019-01-19T23:56:42.847Z,95.57
2019-01-19T23:59:47.965Z,95.55
